Portada
METAR-TAF:

METAR-TAF

Aeropuertos :

Kiritimati, Kiribati

latitud: 01-59N, longitud: 157-29W, altitud: 3 m

Observación

El informe se hizo hace 47 minutos, a las 11:00 UTC
Viento calma
Temperatura 26°C
Humedad 84%
Presión 1012 hPa
Visibilidad 10 km o más
Nubes dispersas a una altura de 2000 ft
Cielo nuboso a una altura de 30000 ft

METAR: PLCH 021100Z 00000KT 9999 SCT020 BKN300 26/23 Q1012

Hora: 01:47 (11:47 UTC)

Pronóstico

El informe se hizo hace 43 minutos, a las 11:04 UTC
Pronóstico válido del 02 a las 12 UTC al 03 a las 12 UTC
Viento 5 kt del este
Visibilidad 10 km o más
Nubes dispersas a una altura de 2000 ft
Cielo nuboso a una altura de 4000 ft

TAF: PLCH 021104Z 0212/0312 09005KT 9999 SCT020 BKN040

Observaciones y pronósticos meteorológicos de más de 4000 aeropuertos (mensajes METAR y TAF).

Los puntos amarillos y rojos representan las estaciones disponibles.

Ponga el ratón en el punto deseado para ver el nombre de la estación.

Haga clic para ver las observaciones y los pronósticos meteorológicos.

Para cambiar el mapa : haga clic en los botones verdes con una cruz de color negro para hacer un zoom, en el botón verde con un guión para alejar o en las flechas verdes para mapas adyacentes.


METAR-TAF: